Time;durP1;ratioP1;P1;durP2;ratioP2;P2;SDS_P1;SDS_P2;PMS_P1;PMS_P2;Temp;Humidity;BMP_temperature;BMP_pressure;BME280_temperature;BME280_humidity;BME280_pressure;Samples;Min_cycle;Max_cycle;Signal;HPM_P1;HPM_P2
2021/12/18 00:02:00;;;;;;;52.28;23.10;;;;;;;5.69;100.00;102293.97;5116894;27;20055;-49
2021/12/18 00:04:28;;;;;;;45.53;21.45;;;;;;;5.69;100.00;102288.69;5117952;28;20056;-49
2021/12/18 00:06:57;;;;;;;51.63;22.35;;;;;;;5.66;100.00;102286.94;5117025;28;20059;-51
2021/12/18 00:09:28;;;;;;;49.97;22.90;;;;;;;5.65;100.00;102286.97;5116807;28;20064;-52
2021/12/18 00:11:58;;;;;;;49.20;24.60;;;;;;;5.64;100.00;102285.25;5116690;28;20063;-51
2021/12/18 00:14:26;;;;;;;52.15;23.52;;;;;;;5.68;100.00;102284.31;5116609;28;20067;-50
2021/12/18 00:16:55;;;;;;;51.08;22.55;;;;;;;5.61;100.00;102272.13;5116824;28;20047;-52
2021/12/18 00:19:26;;;;;;;48.63;22.40;;;;;;;5.62;100.00;102281.78;5116778;28;20533;-51
2021/12/18 00:21:54;;;;;;;36.80;16.23;;;;;;;5.65;100.00;102281.69;5116227;28;20056;-50
2021/12/18 00:24:24;;;;;;;51.70;22.35;;;;;;;5.65;100.00;102284.34;5117305;28;20063;-52
2021/12/18 00:26:53;;;;;;;49.88;23.02;;;;;;;5.64;100.00;102285.25;5117333;28;20055;-51
2021/12/18 00:29:23;;;;;;;47.97;22.20;;;;;;;5.62;100.00;102282.63;5116302;28;20051;-49
2021/12/18 00:31:51;;;;;;;46.88;21.98;;;;;;;5.63;100.00;102283.50;5116628;28;20081;-51
2021/12/18 00:34:20;;;;;;;49.95;22.85;;;;;;;5.54;100.00;102274.81;5115936;28;20064;-51
2021/12/18 00:36:48;;;;;;;49.78;22.27;;;;;;;5.48;100.00;102274.91;5116102;28;20052;-52
2021/12/18 00:39:16;;;;;;;49.17;22.75;;;;;;;5.40;100.00;102279.41;5116783;27;20055;-51
2021/12/18 00:42:07;;;;;;;51.65;23.02;;;;;;;5.29;100.00;102271.63;5116373;28;20063;-49
2021/12/18 00:44:37;;;;;;;53.13;23.13;;;;;;;5.30;100.00;102280.41;5117104;28;20058;-50
2021/12/18 00:47:06;;;;;;;52.85;23.65;;;;;;;5.25;100.00;102282.22;5115714;28;20066;-49
2021/12/18 00:49:34;;;;;;;54.70;22.75;;;;;;;5.26;100.00;102273.44;5116144;28;20098;-50
2021/12/18 00:52:03;;;;;;;57.00;23.77;;;;;;;5.25;100.00;102274.34;5115774;28;20526;-52
2021/12/18 00:54:31;;;;;;;58.50;25.23;;;;;;;5.13;100.00;102268.31;5115633;28;20059;-51
2021/12/18 00:57:00;;;;;;;57.08;23.63;;;;;;;4.98;100.00;102271.13;5116599;28;20082;-50
2021/12/18 00:59:28;;;;;;;55.25;23.25;;;;;;;4.89;100.00;102263.31;5116716;28;20072;-49
2021/12/18 01:01:58;;;;;;;63.08;24.90;;;;;;;4.77;100.00;102253.78;5115972;28;20056;-49
2021/12/18 01:04:27;;;;;;;59.30;24.75;;;;;;;4.69;100.00;102253.00;5115307;27;20052;-50
2021/12/18 01:06:56;;;;;;;61.60;25.15;;;;;;;4.58;100.00;102258.38;5115891;28;20442;-51
2021/12/18 01:09:37;;;;;;;57.45;25.08;;;;;;;4.45;100.00;102245.34;5115798;28;20051;-50
2021/12/18 01:12:07;;;;;;;55.65;24.10;;;;;;;4.32;100.00;102259.47;5115244;28;20056;-50
2021/12/18 01:14:50;;;;;;;66.45;25.38;;;;;;;4.21;100.00;102249.03;5116754;28;20059;-51
2021/12/18 01:22:52;;;;;;;67.13;26.45;;;;;;;3.86;100.00;102221.25;5115234;28;20063;-52
2021/12/18 01:25:21;;;;;;;62.38;24.05;;;;;;;3.86;100.00;102229.13;5115954;28;20403;-52
2021/12/18 01:27:50;;;;;;;62.63;25.60;;;;;;;3.88;100.00;102235.28;5115478;28;20388;-50
2021/12/18 01:30:19;;;;;;;66.18;26.48;;;;;;;3.85;100.00;102242.28;5115147;28;20531;-51
2021/12/18 01:32:49;;;;;;;70.82;27.17;;;;;;;3.77;100.00;102231.84;5115294;28;20108;-51
2021/12/18 01:35:18;;;;;;;68.85;26.90;;;;;;;3.72;100.00;102226.59;5115010;28;20473;-49
2021/12/18 01:37:47;;;;;;;65.68;26.25;;;;;;;3.59;100.00;102222.31;5115034;28;20055;-51
2021/12/18 01:40:15;;;;;;;66.78;26.45;;;;;;;3.56;100.00;102229.34;5115325;28;20063;-52
2021/12/18 01:45:39;;;;;;;73.47;27.30;;;;;;;3.44;100.00;102227.66;5115742;28;20055;-51
2021/12/18 01:53:40;;;;;;;70.68;25.73;;;;;;;3.27;100.00;102228.59;5115088;28;20066;-52
2021/12/18 01:56:09;;;;;;;72.18;26.42;;;;;;;3.21;100.00;102228.63;5114670;28;20056;-51
2021/12/18 01:58:37;;;;;;;72.75;25.77;;;;;;;3.22;100.00;102227.75;5114788;28;20052;-52
2021/12/18 02:01:06;;;;;;;70.95;27.65;;;;;;;3.18;100.00;102220.78;5114991;28;20074;-52
2021/12/18 02:03:36;;;;;;;74.07;27.80;;;;;;;3.17;100.00;102219.03;5115758;28;20056;-51
2021/12/18 02:06:04;;;;;;;70.40;26.60;;;;;;;3.23;100.00;102220.75;5114935;28;20180;-49
2021/12/18 02:08:35;;;;;;;77.00;28.08;;;;;;;3.24;100.00;102220.72;5114932;28;20051;-51
2021/12/18 02:11:13;;;;;;;74.82;26.98;;;;;;;3.15;100.00;102221.66;5115242;28;20119;-50
2021/12/18 02:14:05;;;;;;;72.97;27.35;;;;;;;3.07;100.00;102227.81;5114329;28;20063;-49
2021/12/18 02:22:12;;;;;;;;;;;;;;;3.11;100.00;102232.16;5114967;28;20051;-52
2021/12/18 02:24:40;;;;;;;77.85;25.75;;;;;;;3.10;100.00;102233.03;5115476;28;19919;-50
2021/12/18 02:27:09;;;;;;;65.50;25.40;;;;;;;3.03;100.00;102232.19;5114745;28;20052;-51
2021/12/18 02:29:39;;;;;;;78.35;27.58;;;;;;;3.05;100.00;102232.19;5114712;28;20074;-50
2021/12/18 02:32:09;;;;;;;83.07;27.83;;;;;;;3.05;100.00;102230.44;5115314;28;20056;-50
2021/12/18 02:34:39;;;;;;;73.85;24.85;;;;;;;3.06;100.00;102237.44;5114132;28;20055;-50
2021/12/18 02:37:10;;;;;;;86.20;26.38;;;;;;;3.05;100.00;102230.44;5114108;28;20059;-52
2021/12/18 02:39:55;;;;;;;78.78;25.60;;;;;;;3.00;100.00;102240.06;5114411;28;20062;-50
2021/12/18 02:42:24;;;;;;;73.03;26.05;;;;;;;2.92;100.00;102229.59;5114916;28;20051;-51
2021/12/18 02:44:52;;;;;;;77.88;26.73;;;;;;;2.94;100.00;102234.81;5114852;28;20059;-51
2021/12/18 02:47:21;;;;;;;74.15;27.92;;;;;;;2.92;100.00;102232.22;5114271;28;20434;-49
2021/12/18 02:49:51;;;;;;;65.68;24.77;;;;;;;2.94;100.00;102230.47;5118137;28;20063;-49
2021/12/18 02:52:20;;;;;;;85.13;26.92;;;;;;;2.98;100.00;102229.56;5118841;27;20062;-51
2021/12/18 02:54:49;;;;;;;73.88;27.15;;;;;;;2.93;100.00;102226.09;5118857;28;20059;-51
2021/12/18 02:57:18;;;;;;;82.75;28.98;;;;;;;2.86;100.00;102218.25;5118385;28;20066;-51
2021/12/18 02:59:47;;;;;;;76.30;26.65;;;;;;;2.82;100.00;102216.53;5118709;27;20055;-51
2021/12/18 03:02:16;;;;;;;78.07;26.52;;;;;;;2.81;100.00;102210.41;5118302;27;20052;-52
2021/12/18 03:04:49;;;;;;;81.18;27.48;;;;;;;2.81;100.00;102218.28;5118595;28;20427;-52
2021/12/18 03:07:20;;;;;;;79.15;25.80;;;;;;;2.73;100.00;102212.19;5118331;28;20101;-51
2021/12/18 03:23:45;;;;;;;68.50;24.77;;;;;;;2.77;100.00;102204.31;5091658;28;20060;-50
2021/12/18 03:26:15;;;;;;;92.95;30.00;;;;;;;2.79;100.00;102199.03;5117305;28;20499;-50
2021/12/18 03:28:43;;;;;;;81.80;26.60;;;;;;;2.79;100.00;102196.41;5118625;28;20487;-49
2021/12/18 03:31:11;;;;;;;80.82;27.13;;;;;;;2.81;100.00;102201.66;5118038;28;20078;-49
2021/12/18 03:33:40;;;;;;;73.10;27.00;;;;;;;2.75;100.00;102200.81;5118220;28;20070;-49
2021/12/18 03:36:08;;;;;;;85.75;25.83;;;;;;;2.73;100.00;102197.31;5117320;27;20047;-51
2021/12/18 03:38:36;;;;;;;73.55;25.60;;;;;;;2.65;100.00;102199.06;5118133;28;20059;-49
2021/12/18 03:41:05;;;;;;;70.53;25.80;;;;;;;2.62;100.00;102198.22;5118417;27;20056;-51
2021/12/18 03:43:34;;;;;;;80.97;27.95;;;;;;;2.60;100.00;102201.69;5117829;28;20055;-50
2021/12/18 03:46:02;;;;;;;69.55;26.52;;;;;;;2.53;100.00;102191.25;5117967;28;20059;-51
2021/12/18 03:48:31;;;;;;;81.97;26.67;;;;;;;2.47;100.00;102189.53;5117005;28;20070;-51
2021/12/18 03:50:59;;;;;;;83.03;26.00;;;;;;;2.49;100.00;102198.25;5117643;28;20051;-52
2021/12/18 03:53:27;;;;;;;78.35;27.30;;;;;;;2.54;100.00;102187.75;5117057;28;20056;-51
2021/12/18 03:55:55;;;;;;;81.80;25.35;;;;;;;2.51;100.00;102193.88;5116983;28;20060;-51
2021/12/18 03:58:24;;;;;;;80.03;26.30;;;;;;;2.47;100.00;102194.78;5116662;28;20065;-51
2021/12/18 04:00:53;;;;;;;91.97;26.42;;;;;;;2.45;100.00;102201.72;5116304;28;20063;-51
2021/12/18 04:03:22;;;;;;;91.82;27.52;;;;;;;2.48;100.00;102206.97;5116560;28;20507;-51
2021/12/18 04:05:50;;;;;;;85.28;27.73;;;;;;;2.46;100.00;102207.88;5117258;28;20068;-51
2021/12/18 04:08:19;;;;;;;76.47;23.38;;;;;;;2.33;100.00;102202.63;5117054;28;20078;-51
2021/12/18 04:10:47;;;;;;;81.25;25.20;;;;;;;2.35;100.00;102210.47;5117513;28;20064;-51
2021/12/18 04:13:15;;;;;;;78.05;25.00;;;;;;;2.44;100.00;102214.84;5117573;28;20400;-52
2021/12/18 04:15:43;;;;;;;75.10;24.42;;;;;;;2.37;100.00;102208.72;5116856;28;20055;-51
2021/12/18 04:18:13;;;;;;;75.80;25.17;;;;;;;2.38;100.00;102211.34;5116543;28;20051;-52
2021/12/18 04:20:41;;;;;;;81.22;26.88;;;;;;;2.40;100.00;102209.63;5116450;28;20074;-52
2021/12/18 04:23:09;;;;;;;88.68;24.90;;;;;;;2.37;100.00;102204.38;5116959;28;20067;-50
2021/12/18 04:25:37;;;;;;;78.72;25.75;;;;;;;2.43;100.00;102203.50;5116924;28;20067;-52
2021/12/18 04:28:05;;;;;;;96.18;28.77;;;;;;;2.47;100.00;102199.13;5116302;28;20056;-50
2021/12/18 04:30:34;;;;;;;87.95;26.50;;;;;;;2.43;100.00;102193.00;5116564;28;20055;-51
2021/12/18 04:33:02;;;;;;;85.35;28.30;;;;;;;2.42;100.00;102191.25;5116213;28;20066;-50
2021/12/18 04:35:32;;;;;;;89.20;26.45;;;;;;;2.47;100.00;102192.16;5116829;28;20059;-52
2021/12/18 04:38:00;;;;;;;91.93;26.52;;;;;;;2.51;100.00;102195.63;5116762;28;20097;-51
2021/12/18 04:40:28;;;;;;;104.07;27.70;;;;;;;2.50;100.00;102194.75;5116126;28;20498;-52
2021/12/18 04:42:57;;;;;;;102.53;29.02;;;;;;;2.51;100.00;102193.88;5116433;28;20055;-51
2021/12/18 04:45:25;;;;;;;91.13;28.45;;;;;;;2.52;100.00;102200.88;5117084;28;20060;-51
2021/12/18 04:47:54;;;;;;;89.43;29.85;;;;;;;2.49;100.00;102197.34;5115955;28;20058;-51
2021/12/18 04:50:23;;;;;;;98.90;27.10;;;;;;;2.39;100.00;102191.28;5117075;28;20056;-51
2021/12/18 04:52:52;;;;;;;89.47;29.05;;;;;;;2.45;100.00;102196.50;5116173;28;20055;-51
2021/12/18 04:55:21;;;;;;;88.28;27.67;;;;;;;2.44;100.00;102194.78;5115604;28;20063;-49
2021/12/18 04:57:51;;;;;;;93.95;29.10;;;;;;;2.41;100.00;102194.78;5116062;27;20067;-50
2021/12/18 05:00:20;;;;;;;93.40;27.40;;;;;;;2.32;100.00;102194.75;5115782;28;20059;-51
2021/12/18 05:02:51;;;;;;;99.28;29.33;;;;;;;2.28;100.00;102199.13;5115959;28;20059;-52
2021/12/18 05:05:20;;;;;;;93.60;26.73;;;;;;;2.41;100.00;102200.88;5115335;28;20059;-50
2021/12/18 05:07:49;;;;;;;101.53;29.23;;;;;;;2.41;100.00;102190.38;5115575;28;20062;-51
2021/12/18 05:10:19;;;;;;;85.55;27.48;;;;;;;2.40;100.00;102200.88;5115375;28;20059;-51
2021/12/18 05:12:47;;;;;;;88.55;27.80;;;;;;;2.38;100.00;102200.88;5115404;28;20434;-51
2021/12/18 05:15:15;;;;;;;86.30;26.88;;;;;;;2.45;100.00;102200.88;5115558;28;20538;-52
2021/12/18 05:17:43;;;;;;;94.25;29.45;;;;;;;2.46;100.00;102205.25;5115623;28;20059;-52
2021/12/18 05:20:12;;;;;;;95.20;29.05;;;;;;;2.41;100.00;102205.25;5115342;28;20447;-51
2021/12/18 05:22:40;;;;;;;102.28;28.40;;;;;;;2.41;100.00;102200.00;5115264;28;20411;-51
2021/12/18 05:25:09;;;;;;;95.80;29.00;;;;;;;2.38;100.00;102210.47;5115177;28;20056;-51
2021/12/18 05:27:39;;;;;;;99.80;29.02;;;;;;;2.35;100.00;102200.00;5115205;28;20055;-49
2021/12/18 05:30:09;;;;;;;110.13;31.27;;;;;;;2.41;100.00;102213.09;5115470;28;20067;-50
2021/12/18 05:32:38;;;;;;;96.30;26.98;;;;;;;2.39;100.00;102209.63;5115179;28;20055;-48
2021/12/18 05:35:07;;;;;;;113.32;31.85;;;;;;;2.46;100.00;102200.00;5114816;28;20056;-51
2021/12/18 05:37:47;;;;;;;94.40;29.05;;;;;;;2.51;100.00;102198.25;5114924;28;20062;-51
2021/12/18 05:40:17;;;;;;;97.97;27.48;;;;;;;2.49;100.00;102193.00;5115634;28;20051;-49
2021/12/18 05:42:49;;;;;;;111.53;32.40;;;;;;;2.63;100.00;102194.75;5115341;28;20113;-51
2021/12/18 05:45:18;;;;;;;110.13;29.90;;;;;;;2.60;100.00;102199.09;5115758;28;20071;-51
2021/12/18 05:47:46;;;;;;;106.22;29.17;;;;;;;2.58;100.00;102195.59;5114891;28;20533;-51
2021/12/18 05:50:16;;;;;;;121.22;33.55;;;;;;;2.73;100.00;102199.06;5115117;28;20067;-51
2021/12/18 05:52:46;;;;;;;95.57;29.02;;;;;;;2.63;100.00;102199.97;5114525;27;20537;-50
2021/12/18 05:55:16;;;;;;;119.32;32.45;;;;;;;2.65;100.00;102192.97;5115699;28;20082;-51
2021/12/18 05:57:44;;;;;;;114.20;31.13;;;;;;;2.51;100.00;102191.25;5114723;28;20499;-52
2021/12/18 06:00:15;;;;;;;114.78;33.60;;;;;;;2.53;100.00;102215.69;5115287;28;20074;-51
2021/12/18 06:02:43;;;;;;;104.70;32.08;;;;;;;2.57;100.00;102217.47;5115555;28;20078;-51
2021/12/18 06:05:12;;;;;;;108.25;29.40;;;;;;;2.50;100.00;102214.84;5114636;28;20097;-51
2021/12/18 06:07:52;;;;;;;109.75;32.03;;;;;;;2.47;100.00;102222.69;5114951;28;20059;-51
2021/12/18 06:10:22;;;;;;;99.18;29.67;;;;;;;2.50;100.00;102217.44;5115085;28;20052;-50
2021/12/18 06:12:50;;;;;;;106.20;30.65;;;;;;;2.44;100.00;102228.81;5115450;28;20059;-51
2021/12/18 06:15:20;;;;;;;99.45;28.02;;;;;;;2.34;100.00;102219.22;5115957;28;20055;-51
2021/12/18 06:17:48;;;;;;;113.03;29.10;;;;;;;2.37;100.00;102219.19;5114538;28;20537;-51
2021/12/18 06:20:16;;;;;;;97.80;28.77;;;;;;;2.36;100.00;102222.72;5114463;28;20052;-51
2021/12/18 06:22:44;;;;;;;99.93;30.30;;;;;;;2.32;100.00;102231.44;5116622;28;20499;-51
2021/12/18 06:25:13;;;;;;;95.32;29.77;;;;;;;2.23;100.00;102227.94;5119224;28;20062;-51
2021/12/18 06:27:41;;;;;;;106.85;31.25;;;;;;;2.21;100.00;102224.44;5118710;28;20051;-49
2021/12/18 06:30:10;;;;;;;95.70;28.10;;;;;;;2.17;100.00;102224.44;5118656;28;20074;-51
2021/12/18 06:32:40;;;;;;;100.82;28.63;;;;;;;2.16;100.00;102225.34;5118613;28;20437;-51
2021/12/18 06:35:10;;;;;;;106.85;30.10;;;;;;;2.09;100.00;102220.97;5119503;28;20060;-48
2021/12/18 06:37:38;;;;;;;102.75;29.88;;;;;;;2.14;100.00;102235.81;5118796;28;20401;-51
2021/12/18 06:40:08;;;;;;;102.00;31.70;;;;;;;2.10;100.00;102239.31;5119039;28;20055;-52
2021/12/18 06:42:38;;;;;;;100.88;30.88;;;;;;;2.06;100.00;102234.91;5118163;28;20105;-52
2021/12/18 06:45:07;;;;;;;102.15;30.27;;;;;;;1.96;100.00;102227.94;5118114;28;20062;-51
2021/12/18 06:47:35;;;;;;;123.78;31.65;;;;;;;1.97;100.00;102237.53;5118548;28;20063;-51
2021/12/18 06:50:06;;;;;;;110.13;28.38;;;;;;;1.93;100.00;102243.63;5118557;28;20060;-52
2021/12/18 06:52:35;;;;;;;95.68;29.38;;;;;;;1.87;100.00;102241.88;5118245;28;20060;-52
2021/12/18 06:55:04;;;;;;;102.40;30.25;;;;;;;1.83;100.00;102235.78;5117930;28;20059;-50
2021/12/18 06:57:32;;;;;;;99.05;29.65;;;;;;;1.81;100.00;102245.34;5118433;28;20055;-51
2021/12/18 07:00:01;;;;;;;101.85;29.20;;;;;;;1.73;100.00;102241.88;5118175;28;20063;-49
2021/12/18 07:02:29;;;;;;;90.88;29.80;;;;;;;1.79;100.00;102249.72;5118317;28;20070;-51
2021/12/18 07:04:57;;;;;;;95.68;27.05;;;;;;;1.77;100.00;102246.22;5119173;27;20087;-50
2021/12/18 07:07:27;;;;;;;104.03;30.38;;;;;;;1.70;100.00;102247.09;5118139;28;20059;-52
2021/12/18 07:09:55;;;;;;;108.10;29.85;;;;;;;1.69;100.00;102250.56;5117893;27;20549;-51
2021/12/18 07:12:23;;;;;;;118.38;31.45;;;;;;;1.66;100.00;102255.78;5118680;28;20058;-51
2021/12/18 07:14:51;;;;;;;105.25;29.58;;;;;;;1.59;100.00;102251.41;5117539;28;20056;-52
2021/12/18 07:17:19;;;;;;;119.35;31.90;;;;;;;1.60;100.00;102250.56;5118014;28;20055;-49
2021/12/18 07:19:48;;;;;;;104.03;28.98;;;;;;;1.66;100.00;102253.16;5117677;28;20055;-51
2021/12/18 07:22:16;;;;;;;90.38;28.40;;;;;;;1.59;100.00;102254.03;5117674;28;20052;-52
2021/12/18 07:24:45;;;;;;;96.80;29.13;;;;;;;1.54;100.00;102260.97;5117366;28;20055;-51
2021/12/18 07:27:13;;;;;;;110.97;29.42;;;;;;;1.46;100.00;102261.84;5117422;28;20549;-51
2021/12/18 07:29:42;;;;;;;98.93;27.95;;;;;;;1.41;100.00;102260.94;5117551;27;20056;-51
2021/12/18 07:32:10;;;;;;;95.47;27.83;;;;;;;1.39;100.00;102273.13;5117443;28;20055;-51
2021/12/18 07:34:53;;;;;;;106.38;28.98;;;;;;;1.32;100.00;102271.34;5116484;28;20059;-49
2021/12/18 07:37:22;;;;;;;101.30;30.15;;;;;;;1.29;100.00;102271.34;5117635;28;20062;-52
2021/12/18 07:39:52;;;;;;;102.88;30.88;;;;;;;1.38;100.00;102276.63;5118413;27;20137;-51
2021/12/18 07:42:20;;;;;;;91.53;29.20;;;;;;;1.33;100.00;102272.22;5117901;28;20082;-50
2021/12/18 07:44:49;;;;;;;93.85;28.05;;;;;;;1.26;100.00;102281.78;5118106;27;20067;-51
2021/12/18 07:47:18;;;;;;;105.35;29.67;;;;;;;1.16;100.00;102277.38;5117408;28;20063;-52
2021/12/18 07:49:46;;;;;;;105.68;29.15;;;;;;;1.17;100.00;102281.75;5117112;28;20055;-51
2021/12/18 07:52:14;;;;;;;100.50;29.00;;;;;;;1.22;100.00;102285.25;5117025;28;20541;-51
2021/12/18 07:54:42;;;;;;;109.05;31.35;;;;;;;1.24;100.00;102288.75;5116803;28;20051;-51
2021/12/18 07:57:12;;;;;;;104.85;29.55;;;;;;;1.22;100.00;102283.50;5118075;28;20066;-49
2021/12/18 07:59:40;;;;;;;122.50;31.70;;;;;;;1.24;100.00;102288.75;5117508;28;20411;-50
2021/12/18 08:02:08;;;;;;;105.47;32.00;;;;;;;1.22;100.00;102282.63;5117417;28;20059;-52
2021/12/18 08:04:37;;;;;;;109.50;30.15;;;;;;;1.28;100.00;102293.13;5116908;28;20055;-49
2021/12/18 08:07:05;;;;;;;107.70;30.10;;;;;;;1.26;100.00;102287.91;5116626;28;20078;-52
2021/12/18 08:09:33;;;;;;;127.03;31.27;;;;;;;1.33;100.00;102288.81;5118229;27;20063;-51
2021/12/18 08:12:01;;;;;;;112.95;34.25;;;;;;;1.38;100.00;102286.19;5105344;28;20131;-51
2021/12/18 08:14:32;;;;;;;128.68;34.63;;;;;;;1.47;100.00;102297.56;5097306;28;20055;-51
2021/12/18 08:17:00;;;;;;;122.68;33.28;;;;;;;1.51;100.00;102297.59;5113962;28;20189;-50
2021/12/18 08:19:28;;;;;;;118.00;32.53;;;;;;;1.57;100.00;102297.63;5105770;28;20056;-51
2021/12/18 08:21:56;;;;;;;122.93;33.63;;;;;;;1.60;100.00;102302.88;5100334;28;20052;-50
2021/12/18 08:24:24;;;;;;;121.18;35.38;;;;;;;1.64;100.00;102299.38;5107178;28;20052;-50
2021/12/18 08:26:53;;;;;;;122.65;34.65;;;;;;;1.66;100.00;102302.88;5108840;28;20494;-50
2021/12/18 08:29:21;;;;;;;114.68;34.30;;;;;;;1.67;100.00;102304.63;5111191;28;20059;-51
2021/12/18 08:31:51;;;;;;;128.13;35.63;;;;;;;1.72;100.00;102305.53;5105902;28;20058;-51
2021/12/18 08:34:20;;;;;;;117.30;36.05;;;;;;;1.75;100.00;102297.69;5115703;28;20055;-51
2021/12/18 08:36:49;;;;;;;116.43;35.92;;;;;;;1.81;100.00;102299.44;5116941;28;20056;-51
2021/12/18 08:39:17;;;;;;;120.18;34.38;;;;;;;1.83;100.00;102301.19;5115931;28;20059;-51
2021/12/18 08:41:46;;;;;;;104.90;33.58;;;;;;;1.86;100.00;102295.09;5110248;28;20067;-51
2021/12/18 08:44:14;;;;;;;116.07;33.67;;;;;;;1.92;100.00;102316.06;5115672;28;20056;-51
2021/12/18 08:46:42;;;;;;;121.15;34.78;;;;;;;2.01;100.00;102315.19;5114060;27;20056;-51
2021/12/18 08:49:12;;;;;;;113.97;35.20;;;;;;;2.15;100.00;102318.72;5115893;28;20056;-50
2021/12/18 08:51:40;;;;;;;121.53;33.45;;;;;;;2.26;100.00;102323.09;5116111;28;20055;-51
2021/12/18 08:54:09;;;;;;;113.15;35.83;;;;;;;2.38;100.00;102321.34;5116295;28;20108;-51
2021/12/18 08:56:37;;;;;;;114.45;35.35;;;;;;;2.49;100.00;102324.00;5100216;28;20056;-50
2021/12/18 08:59:06;;;;;;;106.15;35.83;;;;;;;2.65;100.00;102329.22;5095539;28;20062;-51
2021/12/18 09:01:34;;;;;;;119.60;35.88;;;;;;;2.73;100.00;102327.50;5095962;28;20389;-51
2021/12/18 09:04:06;;;;;;;111.35;35.30;;;;;;;2.84;100.00;102330.09;5095188;28;20527;-50
2021/12/18 09:06:36;;;;;;;107.38;35.70;;;;;;;3.00;100.00;102323.09;5095769;28;20059;-49
2021/12/18 09:09:06;;;;;;;108.55;35.28;;;;;;;3.10;100.00;102324.81;5096185;28;20488;-51
2021/12/18 09:11:34;;;;;;;96.35;33.00;;;;;;;3.18;100.00;102320.44;5094963;28;20052;-51
2021/12/18 09:14:02;;;;;;;92.93;33.53;;;;;;;3.27;100.00;102328.25;5094789;28;20056;-51
2021/12/18 09:16:32;;;;;;;92.32;31.90;;;;;;;3.69;100.00;102330.75;5109604;28;20052;-51
2021/12/18 09:19:00;;;;;;;76.75;29.45;;;;;;;4.18;100.00;102332.25;5115607;27;20491;-51
2021/12/18 09:21:28;;;;;;;72.43;28.73;;;;;;;4.53;100.00;102339.88;5115473;28;20117;-51
2021/12/18 09:23:58;;;;;;;58.40;24.85;;;;;;;4.79;100.00;102342.31;5115696;28;20052;-50
2021/12/18 09:26:27;;;;;;;54.67;23.17;;;;;;;4.93;100.00;102341.31;5114885;28;20579;-51
2021/12/18 09:28:55;;;;;;;39.63;18.55;;;;;;;5.41;100.00;102341.66;5112155;28;20067;-51
2021/12/18 09:31:25;;;;;;;37.40;17.42;;;;;;;5.86;100.00;102344.63;5094684;28;20056;-51
2021/12/18 09:33:53;;;;;;;41.33;18.35;;;;;;;6.30;100.00;102351.09;5100815;28;20415;-51
2021/12/18 09:36:22;;;;;;;37.25;17.33;;;;;;;6.89;100.00;102350.13;5104942;28;20071;-51
2021/12/18 09:38:50;;;;;;;33.75;17.67;;;;;;;7.81;100.00;102351.00;5103066;27;20055;-50
2021/12/18 09:41:20;;;;;;;32.58;15.60;;;;;;;9.16;100.00;102347.81;5096098;28;20063;-51
2021/12/18 09:43:48;;;;;;;30.58;15.88;;;;;;;10.15;100.00;102340.56;5098562;28;20064;-51
2021/12/18 09:46:17;;;;;;;30.40;14.82;;;;;;;11.02;86.33;102342.13;5094931;28;20052;-51
2021/12/18 09:48:46;;;;;;;29.42;14.02;;;;;;;11.91;72.25;102346.03;5103302;28;20066;-51
2021/12/18 09:51:23;;;;;;;27.83;14.38;;;;;;;12.25;62.58;102358.00;5102672;28;20070;-49
2021/12/18 09:53:53;;;;;;;26.00;13.73;;;;;;;12.90;59.75;102358.88;5092658;28;20056;-51
2021/12/18 09:56:24;;;;;;;30.75;14.88;;;;;;;14.16;56.46;102356.84;5098365;28;20431;-51
2021/12/18 09:58:53;;;;;;;30.02;15.00;;;;;;;14.78;49.58;102355.56;5098432;28;20059;-50
2021/12/18 10:01:22;;;;;;;23.85;13.98;;;;;;;14.27;52.18;102363.38;5100367;28;20082;-52
2021/12/18 10:03:51;;;;;;;26.05;15.30;;;;;;;14.43;50.46;102362.63;5095023;28;20063;-51
2021/12/18 10:06:36;;;;;;;28.20;14.20;;;;;;;14.66;48.93;102362.41;5098394;28;20052;-51
2021/12/18 10:09:07;;;;;;;24.33;14.07;;;;;;;15.30;48.08;102362.72;5101161;28;20063;-51
2021/12/18 10:11:45;;;;;;;27.23;15.00;;;;;;;16.97;47.05;102370.38;5099255;28;20519;-51
2021/12/18 10:14:14;;;;;;;29.80;14.43;;;;;;;16.97;47.05;102370.38;5089850;28;20087;-52
2021/12/18 10:16:47;;;;;;;26.65;13.90;;;;;;;19.26;38.45;102373.59;5091382;28;20473;-49
2021/12/18 10:19:26;;;;;;;26.42;14.10;;;;;;;18.86;39.17;102372.78;5092208;28;20052;-51
2021/12/18 10:21:57;;;;;;;27.50;13.73;;;;;;;19.95;37.27;102378.63;5092353;28;20560;-49
2021/12/18 10:24:26;;;;;;;26.40;14.82;;;;;;;19.49;37.67;102379.19;5092104;28;20064;-50
2021/12/18 10:26:56;;;;;;;23.85;14.20;;;;;;;19.49;37.67;102379.19;5098908;28;20130;-49
2021/12/18 10:29:27;;;;;;;22.58;14.20;;;;;;;21.57;34.20;102376.34;5093869;28;20059;-49
2021/12/18 10:31:56;;;;;;;;;;;;;;;21.91;32.50;102373.69;5089890;28;20066;-48
2021/12/18 10:34:26;;;;;;;26.42;13.43;;;;;;;22.05;32.04;102373.41;5098429;28;19920;-50
2021/12/18 10:37:16;;;;;;;24.95;14.30;;;;;;;21.91;32.00;102373.69;5095069;28;20063;-49
2021/12/18 10:39:47;;;;;;;24.50;14.35;;;;;;;21.84;31.08;102363.34;5096202;28;20467;-48
2021/12/18 10:42:19;;;;;;;21.50;13.85;;;;;;;21.93;31.23;102360.91;5099494;28;20052;-50
2021/12/18 10:45:14;;;;;;;24.50;13.73;;;;;;;21.52;31.87;102363.25;5094341;28;20423;-50
2021/12/18 10:47:48;;;;;;;23.25;13.32;;;;;;;21.02;32.69;102365.34;5083121;28;20056;-47
2021/12/18 10:50:26;;;;;;;24.38;13.88;;;;;;;21.10;32.54;102366.47;5097190;28;20055;-48
2021/12/18 10:52:59;;;;;;;24.60;14.02;;;;;;;20.34;34.10;102357.81;5094730;28;20067;-50
2021/12/18 10:55:29;;;;;;;27.20;14.13;;;;;;;19.46;35.04;102357.88;5090788;28;20071;-51
2021/12/18 10:57:59;;;;;;;22.95;13.45;;;;;;;19.33;35.25;102368.63;5091683;28;20430;-52
2021/12/18 11:00:38;;;;;;;26.20;14.40;;;;;;;19.01;35.96;102358.28;5091889;28;20054;-52
2021/12/18 11:03:20;;;;;;;22.75;13.82;;;;;;;20.07;34.63;102354.47;5093963;28;20066;-53
2021/12/18 11:06:08;;;;;;;24.25;13.50;;;;;;;20.50;32.95;102359.38;5091802;28;20454;-52
2021/12/18 11:08:51;;;;;;;23.58;14.27;;;;;;;20.77;32.73;102351.91;5091631;28;20064;-50
2021/12/18 11:14:10;;;;;;;22.30;13.73;;;;;;;21.30;31.96;102347.84;5098073;28;20067;-49
2021/12/18 11:16:40;;;;;;;23.42;13.57;;;;;;;21.56;31.34;102350.34;5101449;28;20060;-48
2021/12/18 11:19:11;;;;;;;22.83;14.07;;;;;;;18.93;35.03;102350.75;5100304;28;20059;-47
2021/12/18 11:21:41;;;;;;;22.23;12.93;;;;;;;18.35;36.29;102350.13;5098761;28;20063;-49
2021/12/18 11:24:10;;;;;;;23.13;13.57;;;;;;;20.49;33.36;102347.69;5099335;28;20067;-50
2021/12/18 11:26:42;;;;;;;22.65;13.75;;;;;;;21.09;32.19;102335.06;5101072;28;20048;-49
2021/12/18 11:29:20;;;;;;;22.58;14.07;;;;;;;23.04;28.66;102335.44;5099427;28;20052;-49
2021/12/18 11:31:49;;;;;;;23.15;14.25;;;;;;;24.06;27.96;102328.19;5098250;28;20063;-48
2021/12/18 11:34:17;;;;;;;22.42;13.38;;;;;;;-145.00;27.03;60578.66;5098993;28;20427;-48
2021/12/18 11:36:47;;;;;;;24.17;14.00;;;;;;;26.15;24.68;102339.16;5110982;28;20510;-48
2021/12/18 11:39:17;;;;;;;20.20;12.65;;;;;;;26.24;24.33;102340.97;5117631;28;20415;-49
2021/12/18 11:41:49;;;;;;;22.85;13.38;;;;;;;26.09;24.29;102339.78;5117046;28;20060;-48
2021/12/18 11:44:32;;;;;;;22.77;13.93;;;;;;;24.85;25.74;102343.50;5116052;28;20056;-50
2021/12/18 11:47:02;;;;;;;20.27;12.93;;;;;;;25.23;25.05;102338.13;5116982;28;20055;-48
2021/12/18 11:49:44;;;;;;;19.15;13.43;;;;;;;27.16;23.34;102338.84;5096704;28;20102;-49
2021/12/18 11:52:12;;;;;;;21.48;13.07;;;;;;;27.72;22.81;102333.00;5096763;28;20063;-50
2021/12/18 11:54:48;;;;;;;19.60;12.63;;;;;;;28.90;20.90;102328.28;5097130;28;20056;-48
2021/12/18 11:57:40;;;;;;;18.92;12.65;;;;;;;28.32;21.69;102324.66;5096320;28;20541;-48